Time;durP1;ratioP1;P1;durP2;ratioP2;P2;SDS_P1;SDS_P2;PMS_P1;PMS_P2;Temp;Humidity;BMP_temperature;BMP_pressure;BME280_temperature;BME280_humidity;BME280_pressure;Samples;Min_cycle;Max_cycle;Signal;HPM_P1;HPM_P2
2023/08/11 00:02:22;;;;;;;5.47;3.20;;;15.30;97.30;;;;;;6280937;22;20032;-79
2023/08/11 00:04:49;;;;;;;6.25;3.08;;;15.40;97.00;;;;;;6280593;22;19999;-79
2023/08/11 00:07:15;;;;;;;5.60;3.30;;;15.40;97.00;;;;;;6252370;22;20269;-79
2023/08/11 00:09:41;;;;;;;6.60;3.50;;;15.40;97.00;;;;;;6280832;22;20003;-80
2023/08/11 00:12:06;;;;;;;6.72;3.25;;;15.40;97.10;;;;;;6280665;22;20011;-80
2023/08/11 00:14:32;;;;;;;6.43;3.33;;;15.40;97.10;;;;;;6279622;22;20031;-79
2023/08/11 00:16:58;;;;;;;8.88;3.10;;;15.40;97.10;;;;;;6280573;22;20079;-79
2023/08/11 00:19:24;;;;;;;6.53;3.00;;;15.40;97.00;;;;;;6280876;22;20042;-79
2023/08/11 00:21:49;;;;;;;5.00;2.97;;;15.30;97.40;;;;;;6279054;22;20346;-79
2023/08/11 00:24:16;;;;;;;5.65;3.10;;;15.20;97.90;;;;;;6253593;22;20012;-80
2023/08/11 00:26:41;;;;;;;5.82;3.20;;;15.00;98.00;;;;;;6280683;22;20401;-79
2023/08/11 00:29:07;;;;;;;4.55;2.95;;;14.80;98.00;;;;;;6279875;22;20003;-79
2023/08/11 00:31:32;;;;;;;5.53;3.55;;;14.60;98.00;;;;;;6279298;22;20304;-79
2023/08/11 00:33:58;;;;;;;6.85;3.10;;;14.50;98.00;;;;;;6280168;22;20033;-80
2023/08/11 00:36:24;;;;;;;5.55;3.42;;;14.30;98.00;;;;;;6279468;22;20007;-79
2023/08/11 00:38:49;;;;;;;8.93;3.45;;;14.10;98.00;;;;;;6253723;22;20280;-80
2023/08/11 00:41:16;;;;;;;7.85;3.90;;;14.00;98.00;;;;;;6252874;22;20015;-80
2023/08/11 00:43:42;;;;;;;5.60;3.60;;;13.90;98.00;;;;;;6280143;22;20000;-79
2023/08/11 00:46:13;;;;;;;7.07;3.83;;;13.80;97.80;;;;;;6253150;22;20004;-79
2023/08/11 00:48:40;;;;;;;6.07;3.85;;;13.70;97.20;;;;;;6280714;22;19996;-79
2023/08/11 00:51:06;;;;;;;6.15;3.55;;;13.60;96.90;;;;;;6251679;22;20007;-80
2023/08/11 00:53:36;;;;;;;7.45;3.72;;;13.50;96.50;;;;;;6279329;22;20000;-79
2023/08/11 00:56:03;;;;;;;7.90;4.18;;;13.50;96.30;;;;;;6279785;22;20313;-80
2023/08/11 00:58:30;;;;;;;7.07;3.88;;;13.60;96.10;;;;;;6252310;22;20003;-79
2023/08/11 01:00:57;;;;;;;7.70;4.07;;;13.60;96.10;;;;;;6253511;22;20010;-79
2023/08/11 01:03:23;;;;;;;6.90;4.40;;;13.60;96.10;;;;;;6253158;22;20004;-79
2023/08/11 01:06:00;;;;;;;6.10;3.95;;;13.50;96.00;;;;;;6278967;22;20274;-79
2023/08/11 01:08:32;;;;;;;8.18;4.10;;;13.40;95.40;;;;;;6280283;22;19995;-78
2023/08/11 01:11:03;;;;;;;8.48;4.38;;;13.50;95.40;;;;;;6279465;22;20006;-79
2023/08/11 01:13:34;;;;;;;6.25;4.15;;;13.50;95.30;;;;;;6280112;22;20003;-81
2023/08/11 01:16:01;;;;;;;7.93;3.80;;;13.50;95.20;;;;;;6280068;22;20377;-79
2023/08/11 01:18:28;;;;;;;8.05;4.30;;;13.50;95.10;;;;;;6280301;22;20261;-79
2023/08/11 01:20:58;;;;;;;5.57;3.85;;;13.50;95.40;;;;;;6277978;22;20003;-79
2023/08/11 01:23:24;;;;;;;6.90;4.10;;;13.50;95.20;;;;;;6280192;22;20110;-79
2023/08/11 01:25:51;;;;;;;6.78;3.90;;;13.50;95.10;;;;;;6253175;22;20358;-79
2023/08/11 01:28:17;;;;;;;5.95;4.03;;;13.50;95.10;;;;;;6252835;22;20019;-80
2023/08/11 01:30:43;;;;;;;6.80;4.30;;;13.50;94.50;;;;;;6279761;22;20057;-79
2023/08/11 01:33:09;;;;;;;7.00;3.90;;;13.50;94.70;;;;;;6253512;22;20004;-80
2023/08/11 01:35:35;;;;;;;7.18;4.80;;;13.60;95.10;;;;;;6278447;22;20270;-79
2023/08/11 01:38:00;;;;;;;7.03;4.50;;;13.60;94.80;;;;;;6280248;22;20027;-79
2023/08/11 01:40:27;;;;;;;7.25;4.88;;;13.70;94.70;;;;;;6279852;22;20024;-80
2023/08/11 01:42:56;;;;;;;6.35;4.22;;;13.70;95.50;;;;;;6279355;22;20257;-80
2023/08/11 01:45:22;;;;;;;8.82;4.63;;;13.70;95.90;;;;;;6279744;22;20049;-79
2023/08/11 01:47:50;;;;;;;8.35;4.97;;;13.70;94.90;;;;;;6279784;22;20030;-79
2023/08/11 01:50:18;;;;;;;6.95;4.32;;;13.80;94.60;;;;;;6277783;22;20113;-79
2023/08/11 01:52:45;;;;;;;7.75;4.60;;;14.00;95.30;;;;;;6279913;22;20004;-79
2023/08/11 01:55:13;;;;;;;8.90;4.57;;;14.10;96.00;;;;;;6279090;22;20357;-79
2023/08/11 01:57:42;;;;;;;6.47;4.32;;;14.20;96.40;;;;;;6279887;22;20003;-79
2023/08/11 02:00:16;;;;;;;8.75;5.47;;;14.20;96.00;;;;;;6279673;22;20077;-79
2023/08/11 02:02:45;;;;;;;7.75;4.72;;;14.40;96.70;;;;;;6252392;22;20277;-79
2023/08/11 02:05:11;;;;;;;9.10;4.18;;;14.30;97.10;;;;;;6251784;22;20380;-80
2023/08/11 02:07:38;;;;;;;8.15;4.93;;;14.30;96.90;;;;;;6281152;22;20009;-79
2023/08/11 02:10:04;;;;;;;6.68;4.53;;;14.20;95.70;;;;;;6281250;22;20003;-81
2023/08/11 02:12:30;;;;;;;7.40;4.82;;;14.20;94.40;;;;;;6281662;22;20015;-79
2023/08/11 02:14:56;;;;;;;7.82;4.60;;;14.10;94.70;;;;;;6255222;22;20247;-78
2023/08/11 02:17:21;;;;;;;5.63;3.97;;;14.10;95.60;;;;;;6254925;22;20010;-78
2023/08/11 02:19:47;;;;;;;7.22;4.65;;;14.00;96.30;;;;;;6280962;22;20027;-78
2023/08/11 02:22:13;;;;;;;6.85;4.88;;;13.90;96.10;;;;;;6279967;22;20074;-78
2023/08/11 02:24:39;;;;;;;9.82;5.05;;;13.80;95.10;;;;;;6282017;22;20004;-80
2023/08/11 02:27:04;;;;;;;7.97;5.25;;;13.70;93.70;;;;;;6281838;22;20239;-80
2023/08/11 02:29:30;;;;;;;8.55;4.90;;;13.60;92.80;;;;;;6280870;22;20071;-80
2023/08/11 02:31:56;;;;;;;9.50;4.95;;;13.70;92.60;;;;;;6281986;22;20008;-79
2023/08/11 02:34:21;;;;;;;6.53;4.68;;;13.70;93.40;;;;;;6280648;22;20075;-79
2023/08/11 02:36:47;;;;;;;6.82;4.65;;;13.70;93.70;;;;;;6253498;22;20003;-81
2023/08/11 02:39:13;;;;;;;7.03;5.00;;;13.80;94.30;;;;;;6254381;22;20430;-80
2023/08/11 02:41:38;;;;;;;7.05;4.75;;;13.80;94.40;;;;;;6281309;22;20004;-79
2023/08/11 02:44:04;;;;;;;7.35;5.18;;;13.70;94.30;;;;;;6281417;22;19999;-79
2023/08/11 02:46:31;;;;;;;7.93;4.57;;;13.70;94.10;;;;;;6281727;22;20070;-79
2023/08/11 02:48:56;;;;;;;9.02;4.82;;;13.60;94.40;;;;;;6253633;22;20027;-79
2023/08/11 02:51:25;;;;;;;7.25;4.45;;;13.60;93.80;;;;;;6278848;22;20010;-79
2023/08/11 02:53:51;;;;;;;8.38;4.63;;;13.50;94.10;;;;;;6281325;22;20042;-79
2023/08/11 02:56:17;;;;;;;10.65;5.10;;;13.50;93.90;;;;;;6281709;22;20003;-80
2023/08/11 02:58:42;;;;;;;6.55;4.40;;;13.50;93.70;;;;;;6281187;22;20077;-81
2023/08/11 03:01:08;;;;;;;7.82;5.22;;;13.50;93.20;;;;;;6281206;22;20286;-80
2023/08/11 03:03:33;;;;;;;8.50;4.82;;;13.50;92.50;;;;;;6280860;22;20003;-80
2023/08/11 03:05:59;;;;;;;8.07;4.95;;;13.40;91.80;;;;;;6279461;22;20000;-80
2023/08/11 03:08:25;;;;;;;7.35;5.32;;;13.40;91.00;;;;;;6254601;22;20000;-79
2023/08/11 03:10:50;;;;;;;7.68;4.60;;;13.40;91.00;;;;;;6281514;22;20073;-80
2023/08/11 03:13:16;;;;;;;7.00;4.57;;;13.50;90.90;;;;;;6281417;22;20011;-80
2023/08/11 03:15:44;;;;;;;9.30;4.95;;;13.50;91.20;;;;;;6281106;22;20294;-79
2023/08/11 03:18:10;;;;;;;7.70;5.03;;;13.60;92.80;;;;;;6279659;22;20000;-80
2023/08/11 03:20:36;;;;;;;7.65;4.72;;;13.50;92.60;;;;;;6279756;22;20004;-80
2023/08/11 03:23:04;;;;;;;8.50;4.60;;;13.50;93.30;;;;;;6281152;22;20007;-79
2023/08/11 03:25:30;;;;;;;7.10;4.97;;;13.40;93.70;;;;;;6281581;22;20008;-80
2023/08/11 03:27:56;;;;;;;7.18;5.18;;;13.40;93.30;;;;;;6253943;22;20333;-79
2023/08/11 03:30:25;;;;;;;8.27;5.38;;;13.30;92.70;;;;;;6281130;22;20261;-80
2023/08/11 03:32:51;;;;;;;7.55;5.45;;;13.20;92.10;;;;;;6280582;22;20026;-79
2023/08/11 03:35:17;;;;;;;7.32;4.90;;;13.20;90.80;;;;;;6279234;22;20000;-79
2023/08/11 03:37:43;;;;;;;9.73;5.90;;;13.30;89.60;;;;;;6280495;22;20004;-80
2023/08/11 03:40:12;;;;;;;6.82;5.00;;;13.30;89.80;;;;;;6254206;22;20011;-80
2023/08/11 03:42:42;;;;;;;6.93;4.80;;;13.30;89.20;;;;;;6280749;22;20078;-81
2023/08/11 03:45:11;;;;;;;7.57;5.57;;;13.40;89.00;;;;;;6281546;22;20260;-80
2023/08/11 03:47:37;;;;;;;8.32;5.80;;;13.50;89.60;;;;;;6280310;22;20118;-80
2023/08/11 03:50:03;;;;;;;8.63;5.57;;;13.60;90.20;;;;;;6280606;22;20349;-80
2023/08/11 03:52:29;;;;;;;7.13;5.03;;;13.70;91.50;;;;;;6252057;22;20011;-79
2023/08/11 03:54:54;;;;;;;8.55;4.90;;;13.70;92.60;;;;;;6281057;22;20239;-80
2023/08/11 03:57:20;;;;;;;8.60;5.63;;;13.70;93.50;;;;;;6279717;22;20146;-79
2023/08/11 03:59:45;;;;;;;9.93;5.38;;;13.70;93.90;;;;;;6280192;22;20065;-79
2023/08/11 04:02:11;;;;;;;6.93;5.40;;;13.60;93.60;;;;;;6280162;22;20031;-80
2023/08/11 04:04:37;;;;;;;7.22;5.22;;;13.60;92.60;;;;;;6253073;22;20000;-80
2023/08/11 04:07:05;;;;;;;8.90;5.47;;;13.60;91.70;;;;;;6279053;22;19995;-80
2023/08/11 04:09:30;;;;;;;8.93;5.35;;;13.50;92.00;;;;;;6280909;22;19996;-80
2023/08/11 04:11:56;;;;;;;8.07;5.38;;;13.50;92.00;;;;;;6280200;22;20019;-80
2023/08/11 04:14:22;;;;;;;7.50;5.05;;;13.50;92.30;;;;;;6280534;22;20004;-80
2023/08/11 04:16:47;;;;;;;8.10;5.20;;;13.50;92.20;;;;;;6280766;22;20007;-81
2023/08/11 04:19:13;;;;;;;7.65;4.78;;;13.50;92.60;;;;;;6279849;22;20056;-80
2023/08/11 04:21:40;;;;;;;8.60;5.03;;;13.50;92.10;;;;;;6279314;22;20061;-80
2023/08/11 04:24:06;;;;;;;9.20;5.18;;;13.40;92.00;;;;;;6279646;22;20019;-80
2023/08/11 04:26:33;;;;;;;11.95;5.65;;;13.40;91.10;;;;;;6280644;22;19999;-80
2023/08/11 04:28:59;;;;;;;9.57;5.53;;;13.40;89.50;;;;;;6253855;22;20000;-80
2023/08/11 04:31:25;;;;;;;8.30;5.10;;;13.50;90.10;;;;;;6253881;22;20003;-80
2023/08/11 04:33:50;;;;;;;7.22;5.32;;;13.60;90.40;;;;;;6279654;22;20002;-80
2023/08/11 04:36:16;;;;;;;6.72;5.40;;;13.70;91.40;;;;;;6278223;22;20050;-79
2023/08/11 04:38:41;;;;;;;8.77;5.22;;;13.70;91.90;;;;;;6253065;22;20102;-80
2023/08/11 04:41:07;;;;;;;6.97;4.95;;;13.80;91.80;;;;;;6252907;22;20102;-80
2023/08/11 04:43:32;;;;;;;8.32;4.97;;;13.80;91.60;;;;;;6280231;22;20007;-80
2023/08/11 04:45:58;;;;;;;7.03;4.53;;;13.80;91.20;;;;;;6280221;22;20057;-80
2023/08/11 04:48:23;;;;;;;7.82;4.82;;;13.90;92.00;;;;;;6280334;22;20004;-79
2023/08/11 04:50:51;;;;;;;6.57;4.88;;;14.00;92.50;;;;;;6278659;22;20006;-80
2023/08/11 04:53:17;;;;;;;7.65;5.18;;;14.00;92.10;;;;;;6280206;22;20032;-79
2023/08/11 04:55:43;;;;;;;7.53;4.78;;;14.20;92.40;;;;;;6252271;22;20008;-80
2023/08/11 04:58:09;;;;;;;9.27;5.10;;;14.30;93.50;;;;;;6280676;22;20004;-81
2023/08/11 05:00:34;;;;;;;8.45;4.90;;;14.50;93.80;;;;;;6279934;22;19999;-80
2023/08/11 05:03:00;;;;;;;8.93;5.00;;;14.80;94.80;;;;;;6279480;22;20004;-80
2023/08/11 05:05:26;;;;;;;6.53;4.80;;;14.90;95.60;;;;;;6278456;22;19996;-79
2023/08/11 05:07:52;;;;;;;7.32;4.75;;;15.00;95.50;;;;;;6279915;22;20000;-79
2023/08/11 05:10:18;;;;;;;6.00;4.28;;;15.00;96.00;;;;;;6279556;22;20027;-78
2023/08/11 05:12:45;;;;;;;7.25;4.60;;;15.00;95.50;;;;;;6279916;22;20003;-79
2023/08/11 05:15:11;;;;;;;7.03;4.82;;;15.10;95.50;;;;;;6280136;22;20083;-79
2023/08/11 05:17:37;;;;;;;8.00;5.93;;;15.10;96.60;;;;;;6279460;22;20035;-79
2023/08/11 05:20:07;;;;;;;9.30;5.60;;;15.10;95.40;;;;;;6278977;22;20008;-80
2023/08/11 05:22:33;;;;;;;6.90;4.35;;;15.20;96.30;;;;;;6277997;22;20384;-81
2023/08/11 05:24:58;;;;;;;7.10;4.47;;;15.20;96.00;;;;;;6280268;22;20004;-80
2023/08/11 05:27:24;;;;;;;7.07;4.63;;;15.30;97.50;;;;;;6252633;22;20006;-80
2023/08/11 05:29:50;;;;;;;7.63;5.00;;;15.30;97.40;;;;;;6279720;22;20010;-80
2023/08/11 05:32:16;;;;;;;8.88;4.78;;;15.40;97.60;;;;;;6251981;22;20004;-80
2023/08/11 05:34:42;;;;;;;7.47;4.55;;;15.50;97.30;;;;;;6279515;22;20007;-80
2023/08/11 05:37:07;;;;;;;9.60;4.60;;;15.50;97.70;;;;;;6277929;22;20242;-81
2023/08/11 05:39:33;;;;;;;5.95;4.10;;;15.50;98.00;;;;;;6278918;22;20000;-80
2023/08/11 05:41:59;;;;;;;7.70;4.95;;;15.50;97.70;;;;;;6278958;22;20628;-82
2023/08/11 05:44:25;;;;;;;7.63;5.10;;;15.70;98.00;;;;;;6279361;22;20373;-80
2023/08/11 05:46:50;;;;;;;8.20;4.53;;;15.80;98.00;;;;;;6278768;22;20004;-80
2023/08/11 05:49:16;;;;;;;7.07;4.80;;;15.90;98.00;;;;;;6278892;22;20041;-80
2023/08/11 05:51:42;;;;;;;6.88;4.63;;;16.10;98.00;;;;;;6250766;22;20387;-80
2023/08/11 05:54:08;;;;;;;9.20;4.40;;;16.40;98.00;;;;;;6279535;22;20087;-80
2023/08/11 05:56:34;;;;;;;9.13;4.80;;;16.50;98.00;;;;;;6279451;22;20038;-78
2023/08/11 05:58:59;;;;;;;7.25;4.45;;;16.60;98.00;;;;;;6279220;22;20430;-79
2023/08/11 06:01:25;;;;;;;6.55;4.28;;;16.60;98.00;;;;;;6278985;22;20011;-80
2023/08/11 06:03:53;;;;;;;9.68;4.55;;;16.70;98.00;;;;;;6278840;22;20007;-80
2023/08/11 06:06:19;;;;;;;6.53;4.38;;;16.90;98.00;;;;;;6277808;22;20075;-80
2023/08/11 06:08:45;;;;;;;7.85;4.10;;;16.80;98.00;;;;;;6279447;22;20024;-80
2023/08/11 06:11:11;;;;;;;8.52;4.25;;;16.90;98.00;;;;;;6279229;22;20007;-80
2023/08/11 06:13:36;;;;;;;7.05;4.18;;;17.00;98.00;;;;;;6278723;22;20008;-80
2023/08/11 06:16:02;;;;;;;8.68;4.55;;;17.20;98.00;;;;;;6279738;22;20302;-79
2023/08/11 06:18:31;;;;;;;9.32;4.50;;;17.40;98.00;;;;;;6279575;22;20000;-80
2023/08/11 06:20:57;;;;;;;6.05;4.15;;;17.60;98.00;;;;;;6278168;22;19996;-80
2023/08/11 06:23:22;;;;;;;6.43;4.00;;;17.70;98.00;;;;;;6277949;22;20066;-81
2023/08/11 06:25:48;;;;;;;6.88;3.80;;;17.80;98.00;;;;;;6279890;22;20003;-80
2023/08/11 06:28:15;;;;;;;7.05;4.50;;;18.00;97.60;;;;;;6279725;22;19999;-80
2023/08/11 06:30:40;;;;;;;7.57;4.00;;;18.20;97.40;;;;;;6278023;22;20049;-81
2023/08/11 06:33:06;;;;;;;6.75;3.60;;;18.50;96.50;;;;;;6279471;22;20011;-81
2023/08/11 06:35:32;;;;;;;6.47;3.92;;;18.60;95.50;;;;;;6278548;22;20007;-82
2023/08/11 06:37:58;;;;;;;5.82;3.78;;;18.80;95.10;;;;;;6276724;22;20008;-81
2023/08/11 06:40:23;;;;;;;6.75;3.90;;;19.00;94.40;;;;;;6279610;22;20022;-80
2023/08/11 06:42:49;;;;;;;6.22;3.90;;;19.20;94.20;;;;;;6252643;22;20295;-80
2023/08/11 06:45:14;;;;;;;9.10;4.03;;;19.30;94.30;;;;;;6279142;22;20082;-81
2023/08/11 06:47:40;;;;;;;7.55;3.95;;;19.30;94.30;;;;;;6252186;22;20087;-81
2023/08/11 06:50:06;;;;;;;12.80;4.63;;;19.30;94.10;;;;;;6279332;22;19996;-80
2023/08/11 06:52:31;;;;;;;6.50;4.35;;;19.50;93.90;;;;;;6276294;22;20181;-81
2023/08/11 06:54:57;;;;;;;8.88;4.43;;;19.60;93.00;;;;;;6280678;22;20000;-81
2023/08/11 06:57:23;;;;;;;7.32;4.25;;;19.70;93.10;;;;;;6281036;22;20007;-80
2023/08/11 06:59:48;;;;;;;7.05;3.67;;;19.90;92.80;;;;;;6281058;22;20054;-81
2023/08/11 07:02:14;;;;;;;5.60;3.47;;;20.00;93.10;;;;;;6280963;22;20011;-81
2023/08/11 07:04:40;;;;;;;6.40;3.95;;;20.00;92.80;;;;;;6281048;22;20003;-80
2023/08/11 07:07:06;;;;;;;6.43;4.10;;;20.10;93.20;;;;;;6252894;22;20004;-80
2023/08/11 07:09:33;;;;;;;6.65;3.95;;;20.30;93.70;;;;;;6281775;22;20065;-81
2023/08/11 07:11:58;;;;;;;6.07;3.78;;;20.20;92.60;;;;;;6281556;22;20397;-81
2023/08/11 07:14:24;;;;;;;7.97;3.58;;;20.50;92.50;;;;;;6280141;22;20081;-81
2023/08/11 07:16:50;;;;;;;7.20;4.10;;;20.70;92.30;;;;;;6252814;22;20046;-81
2023/08/11 07:19:16;;;;;;;6.80;3.58;;;20.90;92.10;;;;;;6280486;22;20018;-81
2023/08/11 07:21:41;;;;;;;7.32;3.65;;;20.90;92.30;;;;;;6280022;22;20012;-81
2023/08/11 07:24:07;;;;;;;6.35;3.83;;;20.90;91.50;;;;;;6281002;22;20039;-81
2023/08/11 07:26:32;;;;;;;5.22;3.40;;;21.10;91.20;;;;;;6281469;22;20003;-81
2023/08/11 07:28:58;;;;;;;7.20;3.70;;;21.20;91.30;;;;;;6254532;22;20362;-81
2023/08/11 07:31:27;;;;;;;5.78;3.60;;;21.30;90.30;;;;;;6280410;22;20007;-80
2023/08/11 07:33:52;;;;;;;7.68;3.83;;;21.40;90.70;;;;;;6279730;22;20000;-82
2023/08/11 07:36:19;;;;;;;5.60;3.60;;;21.50;90.30;;;;;;6275936;22;20066;-81
2023/08/11 07:38:44;;;;;;;8.00;3.67;;;21.60;90.00;;;;;;6281229;22;20018;-82
2023/08/11 07:41:10;;;;;;;5.93;3.53;;;21.80;90.00;;;;;;6254650;22;19996;-81
2023/08/11 07:43:36;;;;;;;5.72;3.72;;;21.80;90.00;;;;;;6280284;22;20087;-81
2023/08/11 07:46:01;;;;;;;5.90;3.58;;;21.70;89.50;;;;;;6280413;22;19995;-81
2023/08/11 07:48:27;;;;;;;5.43;3.28;;;21.80;90.30;;;;;;6281177;22;20361;-81
2023/08/11 07:50:52;;;;;;;6.88;3.42;;;22.50;88.80;;;;;;6278027;22;20007;-81
2023/08/11 07:53:18;;;;;;;6.43;3.25;;;23.50;86.90;;;;;;6281035;22;20034;-81
2023/08/11 07:55:44;;;;;;;6.35;3.08;;;24.40;84.20;;;;;;6280235;22;20008;-82
2023/08/11 07:58:09;;;;;;;7.05;3.60;;;25.30;81.00;;;;;;6280647;22;20023;-82
2023/08/11 08:00:35;;;;;;;6.93;3.63;;;25.90;79.40;;;;;;6253567;22;20069;-81
2023/08/11 08:03:00;;;;;;;7.63;3.47;;;26.60;77.00;;;;;;6280247;22;20014;-80
2023/08/11 08:05:26;;;;;;;7.22;3.63;;;27.00;76.70;;;;;;6278905;22;20246;-79
2023/08/11 08:07:51;;;;;;;7.75;3.10;;;27.60;75.30;;;;;;6280398;22;20022;-80
2023/08/11 08:10:20;;;;;;;6.93;3.30;;;27.80;75.30;;;;;;6245779;22;20000;-80
2023/08/11 08:12:45;;;;;;;5.55;2.95;;;28.10;74.50;;;;;;6276802;22;20008;-80
2023/08/11 08:15:12;;;;;;;7.40;3.63;;;28.00;74.00;;;;;;6249715;22;20046;-82
2023/08/11 08:17:39;;;;;;;6.75;3.10;;;27.50;75.00;;;;;;6276705;22;20012;-80
2023/08/11 08:20:09;;;;;;;7.95;3.03;;;27.40;75.90;;;;;;6276489;22;20366;-81
2023/08/11 08:22:36;;;;;;;6.18;3.40;;;27.60;75.70;;;;;;6275465;22;20073;-81
2023/08/11 08:25:06;;;;;;;10.88;3.38;;;27.80;75.10;;;;;;6250102;22;20008;-80
2023/08/11 08:27:35;;;;;;;11.82;3.28;;;27.90;74.80;;;;;;6276998;22;20004;-81
2023/08/11 08:30:01;;;;;;;11.20;3.42;;;28.30;75.00;;;;;;6250517;22;20027;-80
2023/08/11 08:32:29;;;;;;;5.88;3.17;;;28.80;73.70;;;;;;6249713;22;20008;-80
2023/08/11 08:34:55;;;;;;;6.50;3.13;;;29.20;72.80;;;;;;6276941;22;20007;-81
2023/08/11 08:37:21;;;;;;;6.20;3.13;;;28.90;73.10;;;;;;6275440;22;20035;-82
2023/08/11 08:39:47;;;;;;;6.03;3.53;;;29.20;73.20;;;;;;6250105;22;20573;-80
2023/08/11 08:42:14;;;;;;;8.70;3.65;;;29.30;72.80;;;;;;6277051;22;20254;-81
2023/08/11 08:44:41;;;;;;;6.05;2.97;;;29.50;72.60;;;;;;6276696;22;20057;-81
2023/08/11 08:47:07;;;;;;;10.38;3.55;;;29.70;71.50;;;;;;6277032;22;19999;-80
2023/08/11 08:49:36;;;;;;;5.75;3.30;;;29.80;70.40;;;;;;6276263;22;20189;-81
2023/08/11 08:52:02;;;;;;;6.00;2.92;;;29.40;72.10;;;;;;6244549;23;20539;-83
2023/08/11 08:54:28;;;;;;;7.47;3.47;;;29.60;71.80;;;;;;6246406;23;20244;-80
2023/08/11 08:56:55;;;;;;;6.72;3.05;;;30.10;70.30;;;;;;6246038;23;20291;-82
2023/08/11 08:59:21;;;;;;;6.13;2.92;;;30.50;69.40;;;;;;6246379;23;20321;-81
2023/08/11 09:01:47;;;;;;;7.03;3.25;;;30.50;68.80;;;;;;6246327;23;20088;-80
2023/08/11 09:04:14;;;;;;;6.03;3.33;;;30.40;69.90;;;;;;6246151;23;20432;-80
2023/08/11 09:06:41;;;;;;;6.97;3.60;;;30.50;69.90;;;;;;6244433;23;20000;-81
2023/08/11 09:09:08;;;;;;;8.02;2.90;;;30.80;69.30;;;;;;6245821;23;20010;-81
2023/08/11 09:11:34;;;;;;;5.28;3.00;;;31.20;69.20;;;;;;6245924;23;20439;-81
2023/08/11 09:14:07;;;;;;;4.80;3.10;;;31.30;68.10;;;;;;6219145;23;20011;-80
2023/08/11 09:16:33;;;;;;;;;;;30.90;66.00;;;;;;6248972;23;20115;-80
2023/08/11 09:18:59;;;;;;;4.95;2.97;;;31.00;66.00;;;;;;6249657;23;19927;-80
2023/08/11 09:21:24;;;;;;;5.22;2.70;;;29.90;65.60;;;;;;6221273;23;20007;-80
2023/08/11 09:23:54;;;;;;;6.78;3.25;;;30.10;67.60;;;;;;6222046;23;20012;-81
2023/08/11 09:26:26;;;;;;;5.57;2.67;;;31.10;63.80;;;;;;6249056;23;20310;-80
2023/08/11 09:28:53;;;;;;;4.93;2.50;;;31.80;64.70;;;;;;6248432;23;20011;-81
2023/08/11 09:31:25;;;;;;;5.20;2.72;;;32.00;61.60;;;;;;6249064;23;20004;-81
2023/08/11 09:33:52;;;;;;;5.18;3.03;;;32.60;61.50;;;;;;6249774;23;20000;-80
2023/08/11 09:36:19;;;;;;;4.43;2.30;;;33.00;61.20;;;;;;6247815;23;20054;-81
2023/08/11 09:38:45;;;;;;;6.10;2.72;;;32.70;60.30;;;;;;6249614;23;20000;-80
2023/08/11 09:41:12;;;;;;;5.13;2.30;;;33.00;61.30;;;;;;6248366;23;20012;-81
2023/08/11 09:43:38;;;;;;;3.95;2.10;;;32.70;58.40;;;;;;6222717;23;20012;-80
2023/08/11 09:46:03;;;;;;;4.78;2.30;;;32.50;58.80;;;;;;6248651;23;20408;-80
2023/08/11 09:48:29;;;;;;;5.45;2.72;;;32.50;59.30;;;;;;6247210;23;20376;-81
2023/08/11 09:50:57;;;;;;;4.82;2.70;;;32.50;59.50;;;;;;6247841;23;20000;-80
2023/08/11 09:53:23;;;;;;;4.20;2.40;;;32.10;60.90;;;;;;6248763;23;20094;-81
2023/08/11 09:55:50;;;;;;;4.80;2.80;;;31.50;62.60;;;;;;6248052;23;20015;-80
2023/08/11 09:58:18;;;;;;;7.35;2.72;;;31.70;64.40;;;;;;6248981;23;20011;-81
2023/08/11 10:00:47;;;;;;;5.32;2.42;;;31.80;63.40;;;;;;6248792;23;20000;-81
2023/08/11 10:03:19;;;;;;;5.57;2.53;;;31.90;61.60;;;;;;6249199;23;20055;-80
2023/08/11 10:05:46;;;;;;;6.07;2.53;;;32.20;60.00;;;;;;6247919;23;19996;-80
2023/08/11 10:08:21;;;;;;;4.93;2.65;;;32.80;61.80;;;;;;6221749;23;20317;-80
2023/08/11 10:10:48;;;;;;;5.50;2.22;;;33.40;59.40;;;;;;6248272;23;20011;-80
2023/08/11 10:13:26;;;;;;;4.35;2.53;;;32.70;59.60;;;;;;6221780;23;20278;-80
2023/08/11 10:15:54;;;;;;;3.85;2.10;;;32.70;61.10;;;;;;6248349;23;20239;-80
2023/08/11 10:18:20;;;;;;;4.53;2.20;;;32.70;59.50;;;;;;6249318;23;20014;-81
2023/08/11 10:20:50;;;;;;;4.97;2.10;;;32.50;59.50;;;;;;6247905;23;20011;-82
2023/08/11 10:23:18;;;;;;;4.45;2.20;;;32.40;60.00;;;;;;6247713;23;20263;-81
2023/08/11 10:25:45;;;;;;;4.28;2.00;;;32.60;58.60;;;;;;6248886;23;20004;-81
2023/08/11 10:28:12;;;;;;;5.53;2.30;;;32.50;58.30;;;;;;6248716;23;20008;-80
2023/08/11 10:30:38;;;;;;;4.60;2.38;;;32.70;58.90;;;;;;6250695;23;20115;-81
2023/08/11 10:33:06;;;;;;;7.05;2.28;;;32.70;58.00;;;;;;6224875;23;20439;-81
2023/08/11 10:35:49;;;;;;;4.13;2.28;;;32.30;59.50;;;;;;6248445;23;20006;-79
2023/08/11 10:38:29;;;;;;;75.72;6.75;;;32.70;59.30;;;;;;6250831;23;20011;-80
2023/08/11 10:41:03;;;;;;;7.00;2.22;;;32.90;59.10;;;;;;6251221;23;20000;-80
2023/08/11 10:43:42;;;;;;;11.10;2.40;;;33.60;57.90;;;;;;6250701;23;20388;-79
2023/08/11 10:46:26;;;;;;;8.38;2.47;;;33.40;57.80;;;;;;6251452;23;20115;-80
2023/08/11 10:49:21;;;;;;;5.93;2.42;;;33.40;60.30;;;;;;6251127;23;20000;-79
2023/08/11 10:51:46;;;;;;;6.25;2.55;;;33.30;58.60;;;;;;6248930;23;20035;-80
2023/08/11 10:54:23;;;;;;;4.90;2.75;;;33.20;59.30;;;;;;6249296;23;20270;-80
2023/08/11 10:56:51;;;;;;;6.50;2.50;;;32.60;59.60;;;;;;6250576;23;20011;-78
2023/08/11 10:59:22;;;;;;;7.28;2.40;;;32.30;60.40;;;;;;6251158;23;20000;-78
2023/08/11 11:01:53;;;;;;;4.65;2.72;;;32.50;60.90;;;;;;6250869;23;20011;-78
2023/08/11 11:04:21;;;;;;;7.95;2.55;;;32.90;59.00;;;;;;6250487;23;20005;-78
2023/08/11 11:06:49;;;;;;;3.92;2.20;;;32.80;60.40;;;;;;6249402;23;20000;-78
2023/08/11 11:09:16;;;;;;;3.88;2.13;;;33.40;59.60;;;;;;6250952;23;20091;-80
2023/08/11 11:11:43;;;;;;;4.93;2.03;;;33.30;59.50;;;;;;6250487;23;20014;-80
2023/08/11 11:14:10;;;;;;;4.80;2.28;;;33.40;59.70;;;;;;6250577;23;20007;-80
2023/08/11 11:16:36;;;;;;;4.57;2.25;;;33.50;59.10;;;;;;6250437;23;20015;-80
2023/08/11 11:19:03;;;;;;;5.88;2.40;;;34.00;58.70;;;;;;6251020;23;20004;-80
2023/08/11 11:21:29;;;;;;;7.45;2.45;;;33.90;57.90;;;;;;6249030;23;20004;-80
2023/08/11 11:23:55;;;;;;;7.18;2.17;;;33.80;58.30;;;;;;6250620;23;20008;-77
2023/08/11 11:26:26;;;;;;;3.72;2.28;;;33.70;58.80;;;;;;6250096;23;20071;-80
2023/08/11 11:28:52;;;;;;;5.65;2.35;;;33.40;60.30;;;;;;6249754;23;20004;-79
2023/08/11 11:31:19;;;;;;;4.75;2.53;;;33.50;60.20;;;;;;6249529;23;20358;-80
2023/08/11 11:33:46;;;;;;;4.85;2.33;;;33.00;60.80;;;;;;6250418;23;20012;-79
2023/08/11 11:36:12;;;;;;;5.13;2.75;;;33.00;60.00;;;;;;6248919;23;20290;-80
2023/08/11 11:38:39;;;;;;;4.13;2.40;;;32.10;61.00;;;;;;6222539;23;20004;-79
2023/08/11 11:41:18;;;;;;;6.05;2.45;;;31.10;63.60;;;;;;6250664;23;20413;-79
2023/08/11 11:43:46;;;;;;;5.15;2.45;;;31.50;62.50;;;;;;6249746;23;20000;-80
2023/08/11 11:46:16;;;;;;;5.10;2.40;;;31.90;61.40;;;;;;6249432;23;20000;-80
2023/08/11 11:48:45;;;;;;;4.40;2.10;;;32.30;61.30;;;;;;6249290;23;20000;-81
2023/08/11 11:51:16;;;;;;;5.20;2.03;;;32.60;62.20;;;;;;6222347;23;20301;-80
2023/08/11 11:53:42;;;;;;;4.68;2.45;;;32.80;62.00;;;;;;6250305;23;20004;-80
2023/08/11 11:56:08;;;;;;;4.57;2.33;;;32.50;60.40;;;;;;6248704;23;20004;-80
2023/08/11 11:58:37;;;;;;;4.97;2.28;;;31.50;61.50;;;;;;6250390;23;20015;-80
2023/08/11 12:01:19;;;;;;;6.10;2.47;;;31.80;62.00;;;;;;6249744;23;20004;-80
2023/08/11 12:03:46;;;;;;;4.88;2.30;;;31.90;61.50;;;;;;6248539;23;20047;-80
2023/08/11 12:06:13;;;;;;;4.25;2.30;;;31.90;62.40;;;;;;6249196;23;20291;-80
2023/08/11 12:08:42;;;;;;;5.35;2.30;;;31.90;61.80;;;;;;6250230;23;20000;-80
2023/08/11 12:11:15;;;;;;;8.27;2.40;;;31.60;63.10;;;;;;6223762;23;19996;-80
2023/08/11 12:13:42;;;;;;;3.95;2.00;;;31.40;61.90;;;;;;6250471;23;20016;-79
2023/08/11 12:16:09;;;;;;;5.45;2.38;;;31.30;63.30;;;;;;6249748;23;20008;-79
2023/08/11 12:18:39;;;;;;;6.18;2.20;;;31.30;62.80;;;;;;6222220;23;20011;-80
2023/08/11 12:21:06;;;;;;;4.47;2.30;;;31.60;61.80;;;;;;6248732;23;20084;-81
2023/08/11 12:23:31;;;;;;;6.22;2.63;;;32.40;61.20;;;;;;6220310;23;20016;-80
2023/08/11 12:25:57;;;;;;;4.55;2.50;;;32.80;61.70;;;;;;6246607;23;20274;-80
2023/08/11 12:28:23;;;;;;;4.20;2.10;;;32.70;62.10;;;;;;6246415;23;20008;-81
2023/08/11 12:30:49;;;;;;;4.30;2.03;;;33.30;60.30;;;;;;6246490;23;19996;-80
2023/08/11 12:33:16;;;;;;;3.95;2.42;;;33.50;58.00;;;;;;6245188;23;20039;-81
2023/08/11 12:35:46;;;;;;;3.55;2.05;;;33.70;58.20;;;;;;6243743;23;20004;-80
2023/08/11 12:38:14;;;;;;;3.88;1.80;;;33.40;58.10;;;;;;6248198;23;20126;-80
2023/08/11 12:40:44;;;;;;;4.82;2.10;;;33.80;57.60;;;;;;6250128;23;20449;-81
2023/08/11 12:43:10;;;;;;;4.47;1.83;;;33.90;57.90;;;;;;6249488;23;20138;-80
2023/08/11 12:45:37;;;;;;;5.30;2.30;;;33.90;58.20;;;;;;6249853;23;20022;-80
2023/08/11 12:48:03;;;;;;;7.03;2.25;;;33.60;59.20;;;;;;6249212;23;20016;-81